sensor_id;sensor_type;location;lat;lon;timestamp;temperature;humidity
29453;DHT22;16424;50.956;5.320;2023-10-08T00:00:48;16.60;99.90
29453;DHT22;16424;50.956;5.320;2023-10-08T00:03:21;16.50;99.90
29453;DHT22;16424;50.956;5.320;2023-10-08T00:05:47;16.50;99.90
29453;DHT22;16424;50.956;5.320;2023-10-08T00:08:15;16.50;99.90
29453;DHT22;16424;50.956;5.320;2023-10-08T00:10:42;16.50;99.90
29453;DHT22;16424;50.956;5.320;2023-10-08T00:13:10;16.50;99.90
29453;DHT22;16424;50.956;5.320;2023-10-08T00:15:38;16.40;99.90
29453;DHT22;16424;50.956;5.320;2023-10-08T00:18:15;16.40;99.90
29453;DHT22;16424;50.956;5.320;2023-10-08T00:20:41;16.50;99.90
29453;DHT22;16424;50.956;5.320;2023-10-08T00:23:23;16.50;99.90
29453;DHT22;16424;50.956;5.320;2023-10-08T00:25:54;16.50;99.90
29453;DHT22;16424;50.956;5.320;2023-10-08T00:28:21;16.50;99.90
29453;DHT22;16424;50.956;5.320;2023-10-08T00:30:47;16.50;99.90
29453;DHT22;16424;50.956;5.320;2023-10-08T00:33:13;16.40;99.90
29453;DHT22;16424;50.956;5.320;2023-10-08T00:35:41;16.40;99.90
29453;DHT22;16424;50.956;5.320;2023-10-08T00:38:08;16.50;99.90
29453;DHT22;16424;50.956;5.320;2023-10-08T00:40:41;16.50;99.90
29453;DHT22;16424;50.956;5.320;2023-10-08T00:46:17;16.50;99.90
29453;DHT22;16424;50.956;5.320;2023-10-08T00:48:50;16.50;99.90
29453;DHT22;16424;50.956;5.320;2023-10-08T00:51:22;16.40;99.90
29453;DHT22;16424;50.956;5.320;2023-10-08T00:54:06;16.30;99.90
29453;DHT22;16424;50.956;5.320;2023-10-08T00:56:35;16.30;99.90
29453;DHT22;16424;50.956;5.320;2023-10-08T00:59:26;16.20;99.90
29453;DHT22;16424;50.956;5.320;2023-10-08T01:01:52;16.10;99.90
29453;DHT22;16424;50.956;5.320;2023-10-08T01:04:25;16.10;99.90
29453;DHT22;16424;50.956;5.320;2023-10-08T01:06:57;16.00;99.90
29453;DHT22;16424;50.956;5.320;2023-10-08T01:09:29;16.00;99.90
29453;DHT22;16424;50.956;5.320;2023-10-08T01:14:33;15.90;99.90
29453;DHT22;16424;50.956;5.320;2023-10-08T01:16:58;15.90;99.90
29453;DHT22;16424;50.956;5.320;2023-10-08T01:19:25;15.80;99.90
29453;DHT22;16424;50.956;5.320;2023-10-08T01:21:52;15.80;99.90
29453;DHT22;16424;50.956;5.320;2023-10-08T01:24:18;15.80;99.90
29453;DHT22;16424;50.956;5.320;2023-10-08T01:26:45;15.70;99.90
29453;DHT22;16424;50.956;5.320;2023-10-08T01:29:12;15.70;99.90
29453;DHT22;16424;50.956;5.320;2023-10-08T01:31:47;15.70;99.90
29453;DHT22;16424;50.956;5.320;2023-10-08T01:34:18;15.70;99.90
29453;DHT22;16424;50.956;5.320;2023-10-08T01:36:52;15.60;99.90
29453;DHT22;16424;50.956;5.320;2023-10-08T01:39:17;15.60;99.90
29453;DHT22;16424;50.956;5.320;2023-10-08T01:41:46;15.60;99.90
29453;DHT22;16424;50.956;5.320;2023-10-08T01:44:16;15.60;99.90
29453;DHT22;16424;50.956;5.320;2023-10-08T01:46:43;15.50;99.90
29453;DHT22;16424;50.956;5.320;2023-10-08T01:49:08;15.50;99.90
29453;DHT22;16424;50.956;5.320;2023-10-08T01:51:38;15.50;99.90
29453;DHT22;16424;50.956;5.320;2023-10-08T01:54:09;15.50;99.90
29453;DHT22;16424;50.956;5.320;2023-10-08T01:56:41;15.40;99.90
29453;DHT22;16424;50.956;5.320;2023-10-08T01:59:08;15.50;99.90
29453;DHT22;16424;50.956;5.320;2023-10-08T02:01:35;15.50;99.90
29453;DHT22;16424;50.956;5.320;2023-10-08T02:04:01;15.50;99.90
29453;DHT22;16424;50.956;5.320;2023-10-08T02:06:27;15.50;99.90
29453;DHT22;16424;50.956;5.320;2023-10-08T02:08:52;15.50;99.90
29453;DHT22;16424;50.956;5.320;2023-10-08T02:11:18;15.60;99.90
29453;DHT22;16424;50.956;5.320;2023-10-08T02:13:45;15.60;99.90
29453;DHT22;16424;50.956;5.320;2023-10-08T02:16:18;15.60;99.90
29453;DHT22;16424;50.956;5.320;2023-10-08T02:18:44;15.70;99.90
29453;DHT22;16424;50.956;5.320;2023-10-08T02:21:10;15.70;99.90
29453;DHT22;16424;50.956;5.320;2023-10-08T02:23:36;15.60;99.90
29453;DHT22;16424;50.956;5.320;2023-10-08T02:26:03;15.60;99.90
29453;DHT22;16424;50.956;5.320;2023-10-08T02:28:28;15.60;99.90
29453;DHT22;16424;50.956;5.320;2023-10-08T02:30:54;15.60;99.90
29453;DHT22;16424;50.956;5.320;2023-10-08T02:33:20;15.70;99.90
29453;DHT22;16424;50.956;5.320;2023-10-08T02:35:46;15.60;99.90
29453;DHT22;16424;50.956;5.320;2023-10-08T02:38:14;15.60;99.90
29453;DHT22;16424;50.956;5.320;2023-10-08T02:40:43;15.70;99.90
29453;DHT22;16424;50.956;5.320;2023-10-08T02:43:14;15.70;99.90
29453;DHT22;16424;50.956;5.320;2023-10-08T02:45:41;15.70;99.90
29453;DHT22;16424;50.956;5.320;2023-10-08T02:48:10;15.70;99.90
29453;DHT22;16424;50.956;5.320;2023-10-08T02:50:42;15.70;99.90
29453;DHT22;16424;50.956;5.320;2023-10-08T02:53:08;15.70;99.90
29453;DHT22;16424;50.956;5.320;2023-10-08T02:55:40;15.80;99.90
29453;DHT22;16424;50.956;5.320;2023-10-08T02:58:13;15.70;99.90
29453;DHT22;16424;50.956;5.320;2023-10-08T03:00:46;15.70;99.90
29453;DHT22;16424;50.956;5.320;2023-10-08T03:03:15;15.70;99.90
29453;DHT22;16424;50.956;5.320;2023-10-08T03:08:16;15.80;99.90
29453;DHT22;16424;50.956;5.320;2023-10-08T03:10:46;15.80;99.90
29453;DHT22;16424;50.956;5.320;2023-10-08T03:13:16;15.70;99.90
29453;DHT22;16424;50.956;5.320;2023-10-08T03:15:43;15.70;99.90
29453;DHT22;16424;50.956;5.320;2023-10-08T03:18:27;15.70;99.90
29453;DHT22;16424;50.956;5.320;2023-10-08T03:21:07;15.80;99.90
29453;DHT22;16424;50.956;5.320;2023-10-08T03:24:08;15.70;99.90
29453;DHT22;16424;50.956;5.320;2023-10-08T03:26:49;15.80;99.90
29453;DHT22;16424;50.956;5.320;2023-10-08T03:29:21;15.70;99.90
29453;DHT22;16424;50.956;5.320;2023-10-08T03:31:46;15.60;99.90
29453;DHT22;16424;50.956;5.320;2023-10-08T03:34:13;15.70;99.90
29453;DHT22;16424;50.956;5.320;2023-10-08T03:36:41;15.70;99.90
29453;DHT22;16424;50.956;5.320;2023-10-08T03:39:14;15.80;99.90
29453;DHT22;16424;50.956;5.320;2023-10-08T03:41:42;15.70;99.90
29453;DHT22;16424;50.956;5.320;2023-10-08T03:44:17;15.60;99.90
29453;DHT22;16424;50.956;5.320;2023-10-08T03:46:43;15.60;99.90
29453;DHT22;16424;50.956;5.320;2023-10-08T03:49:09;15.60;99.90
29453;DHT22;16424;50.956;5.320;2023-10-08T03:51:55;15.70;99.90
29453;DHT22;16424;50.956;5.320;2023-10-08T03:54:23;15.60;99.90
29453;DHT22;16424;50.956;5.320;2023-10-08T03:56:56;15.50;99.90
29453;DHT22;16424;50.956;5.320;2023-10-08T03:59:22;15.50;99.90
29453;DHT22;16424;50.956;5.320;2023-10-08T04:01:58;15.50;99.90
29453;DHT22;16424;50.956;5.320;2023-10-08T04:04:28;15.40;99.90
29453;DHT22;16424;50.956;5.320;2023-10-08T04:07:20;15.40;99.90
29453;DHT22;16424;50.956;5.320;2023-10-08T04:09:59;15.50;99.90
29453;DHT22;16424;50.956;5.320;2023-10-08T04:12:34;15.40;99.90
29453;DHT22;16424;50.956;5.320;2023-10-08T04:15:03;15.40;99.90
29453;DHT22;16424;50.956;5.320;2023-10-08T04:17:36;15.30;99.90
29453;DHT22;16424;50.956;5.320;2023-10-08T04:20:16;15.20;99.90
29453;DHT22;16424;50.956;5.320;2023-10-08T04:23:01;15.30;99.90
29453;DHT22;16424;50.956;5.320;2023-10-08T04:25:28;15.20;99.90
29453;DHT22;16424;50.956;5.320;2023-10-08T04:27:58;15.20;99.90
29453;DHT22;16424;50.956;5.320;2023-10-08T04:30:32;15.20;99.90
29453;DHT22;16424;50.956;5.320;2023-10-08T04:33:05;15.20;99.90
29453;DHT22;16424;50.956;5.320;2023-10-08T04:35:37;15.10;99.90
29453;DHT22;16424;50.956;5.320;2023-10-08T04:38:25;15.10;99.90
29453;DHT22;16424;50.956;5.320;2023-10-08T04:40:52;15.10;99.90
29453;DHT22;16424;50.956;5.320;2023-10-08T04:43:19;15.10;99.90
29453;DHT22;16424;50.956;5.320;2023-10-08T04:45:56;15.10;99.90
29453;DHT22;16424;50.956;5.320;2023-10-08T04:48:25;15.20;99.90
29453;DHT22;16424;50.956;5.320;2023-10-08T04:50:55;15.10;99.90
29453;DHT22;16424;50.956;5.320;2023-10-08T04:53:33;15.20;99.90
29453;DHT22;16424;50.956;5.320;2023-10-08T04:56:07;15.20;99.90
29453;DHT22;16424;50.956;5.320;2023-10-08T04:58:39;15.20;99.90
29453;DHT22;16424;50.956;5.320;2023-10-08T05:01:17;15.20;99.90
29453;DHT22;16424;50.956;5.320;2023-10-08T05:03:54;15.20;99.90
29453;DHT22;16424;50.956;5.320;2023-10-08T05:06:24;15.10;99.90
29453;DHT22;16424;50.956;5.320;2023-10-08T05:09:13;15.00;99.90
29453;DHT22;16424;50.956;5.320;2023-10-08T05:11:54;14.80;99.90
29453;DHT22;16424;50.956;5.320;2023-10-08T05:14:20;14.70;99.90
29453;DHT22;16424;50.956;5.320;2023-10-08T05:17:04;14.70;99.90
29453;DHT22;16424;50.956;5.320;2023-10-08T05:19:45;14.60;99.90
29453;DHT22;16424;50.956;5.320;2023-10-08T05:22:23;14.50;99.90
29453;DHT22;16424;50.956;5.320;2023-10-08T05:25:09;14.50;99.90
29453;DHT22;16424;50.956;5.320;2023-10-08T05:27:43;14.50;99.90
29453;DHT22;16424;50.956;5.320;2023-10-08T05:30:19;14.40;99.90
29453;DHT22;16424;50.956;5.320;2023-10-08T05:32:57;14.50;99.90
29453;DHT22;16424;50.956;5.320;2023-10-08T05:35:29;14.30;99.90
29453;DHT22;16424;50.956;5.320;2023-10-08T05:38:10;14.30;99.90
29453;DHT22;16424;50.956;5.320;2023-10-08T05:40:52;14.20;99.90
29453;DHT22;16424;50.956;5.320;2023-10-08T05:43:29;14.20;99.90
29453;DHT22;16424;50.956;5.320;2023-10-08T05:51:38;14.10;99.90
29453;DHT22;16424;50.956;5.320;2023-10-08T05:54:19;14.00;99.90
29453;DHT22;16424;50.956;5.320;2023-10-08T05:56:58;14.00;99.90
29453;DHT22;16424;50.956;5.320;2023-10-08T06:02:23;13.90;99.90
29453;DHT22;16424;50.956;5.320;2023-10-08T06:07:53;14.00;99.90
29453;DHT22;16424;50.956;5.320;2023-10-08T06:10:29;14.00;99.90
29453;DHT22;16424;50.956;5.320;2023-10-08T06:12:56;14.00;99.90
29453;DHT22;16424;50.956;5.320;2023-10-08T06:15:39;14.00;99.90
29453;DHT22;16424;50.956;5.320;2023-10-08T06:18:30;14.10;99.90
29453;DHT22;16424;50.956;5.320;2023-10-08T06:21:06;14.10;99.90
29453;DHT22;16424;50.956;5.320;2023-10-08T06:23:39;14.10;99.90
29453;DHT22;16424;50.956;5.320;2023-10-08T06:26:07;14.10;99.90
29453;DHT22;16424;50.956;5.320;2023-10-08T06:28:37;14.10;99.90
29453;DHT22;16424;50.956;5.320;2023-10-08T06:31:04;14.10;99.90
29453;DHT22;16424;50.956;5.320;2023-10-08T06:33:38;14.20;99.90
29453;DHT22;16424;50.956;5.320;2023-10-08T06:36:04;14.20;99.90
29453;DHT22;16424;50.956;5.320;2023-10-08T06:38:36;14.20;99.90
29453;DHT22;16424;50.956;5.320;2023-10-08T06:41:05;14.30;99.90
29453;DHT22;16424;50.956;5.320;2023-10-08T06:43:51;14.30;99.90
29453;DHT22;16424;50.956;5.320;2023-10-08T06:46:29;14.50;99.90
29453;DHT22;16424;50.956;5.320;2023-10-08T06:48:58;14.70;99.90
29453;DHT22;16424;50.956;5.320;2023-10-08T06:51:24;14.90;99.90
29453;DHT22;16424;50.956;5.320;2023-10-08T06:53:51;15.20;99.90
29453;DHT22;16424;50.956;5.320;2023-10-08T06:56:17;15.50;99.90
29453;DHT22;16424;50.956;5.320;2023-10-08T06:58:45;15.90;99.90
29453;DHT22;16424;50.956;5.320;2023-10-08T07:01:17;16.30;99.90
29453;DHT22;16424;50.956;5.320;2023-10-08T07:03:50;16.70;99.90
29453;DHT22;16424;50.956;5.320;2023-10-08T07:06:17;17.10;99.90
29453;DHT22;16424;50.956;5.320;2023-10-08T07:08:51;17.40;99.90
29453;DHT22;16424;50.956;5.320;2023-10-08T07:11:21;17.70;99.90
29453;DHT22;16424;50.956;5.320;2023-10-08T07:13:47;17.80;99.90
29453;DHT22;16424;50.956;5.320;2023-10-08T07:16:12;17.80;99.90
29453;DHT22;16424;50.956;5.320;2023-10-08T07:18:43;18.00;99.90
29453;DHT22;16424;50.956;5.320;2023-10-08T07:21:19;18.10;99.90
29453;DHT22;16424;50.956;5.320;2023-10-08T07:23:49;18.40;99.90
29453;DHT22;16424;50.956;5.320;2023-10-08T07:26:22;18.60;99.90
29453;DHT22;16424;50.956;5.320;2023-10-08T07:28:51;18.90;99.90
29453;DHT22;16424;50.956;5.320;2023-10-08T07:31:20;19.10;99.90
29453;DHT22;16424;50.956;5.320;2023-10-08T07:33:49;19.30;99.90
29453;DHT22;16424;50.956;5.320;2023-10-08T07:36:26;19.70;99.90
29453;DHT22;16424;50.956;5.320;2023-10-08T07:38:52;20.00;99.90
29453;DHT22;16424;50.956;5.320;2023-10-08T07:41:19;20.50;99.90
29453;DHT22;16424;50.956;5.320;2023-10-08T07:43:47;20.80;99.90
29453;DHT22;16424;50.956;5.320;2023-10-08T07:46:27;21.00;99.90
29453;DHT22;16424;50.956;5.320;2023-10-08T07:48:55;21.30;99.90
29453;DHT22;16424;50.956;5.320;2023-10-08T07:51:23;21.60;99.90
29453;DHT22;16424;50.956;5.320;2023-10-08T07:53:50;22.10;99.90
29453;DHT22;16424;50.956;5.320;2023-10-08T07:56:22;22.50;99.90
29453;DHT22;16424;50.956;5.320;2023-10-08T07:58:47;22.90;99.90
29453;DHT22;16424;50.956;5.320;2023-10-08T08:01:13;23.10;99.90
29453;DHT22;16424;50.956;5.320;2023-10-08T08:03:40;23.20;99.90
29453;DHT22;16424;50.956;5.320;2023-10-08T08:06:07;23.40;99.90
29453;DHT22;16424;50.956;5.320;2023-10-08T08:08:35;23.70;99.90
29453;DHT22;16424;50.956;5.320;2023-10-08T08:11:02;24.10;99.90
29453;DHT22;16424;50.956;5.320;2023-10-08T08:13:34;23.80;99.90
29453;DHT22;16424;50.956;5.320;2023-10-08T08:16:00;23.90;99.90
29453;DHT22;16424;50.956;5.320;2023-10-08T08:18:37;23.80;99.90
29453;DHT22;16424;50.956;5.320;2023-10-08T08:21:03;23.90;99.90
29453;DHT22;16424;50.956;5.320;2023-10-08T08:23:30;23.80;99.90
29453;DHT22;16424;50.956;5.320;2023-10-08T08:25:57;23.90;99.90
29453;DHT22;16424;50.956;5.320;2023-10-08T08:28:34;24.20;99.90
29453;DHT22;16424;50.956;5.320;2023-10-08T08:31:04;24.50;99.90
29453;DHT22;16424;50.956;5.320;2023-10-08T08:33:31;24.80;99.90
29453;DHT22;16424;50.956;5.320;2023-10-08T08:36:16;24.60;99.90
29453;DHT22;16424;50.956;5.320;2023-10-08T08:38:42;24.80;99.90
29453;DHT22;16424;50.956;5.320;2023-10-08T08:41:08;24.80;99.90
29453;DHT22;16424;50.956;5.320;2023-10-08T08:43:39;25.00;99.90
29453;DHT22;16424;50.956;5.320;2023-10-08T08:46:10;24.70;99.90
29453;DHT22;16424;50.956;5.320;2023-10-08T08:48:44;25.40;99.90
29453;DHT22;16424;50.956;5.320;2023-10-08T08:51:12;26.00;99.90
29453;DHT22;16424;50.956;5.320;2023-10-08T08:53:39;26.50;99.90
29453;DHT22;16424;50.956;5.320;2023-10-08T08:56:07;26.40;99.90
29453;DHT22;16424;50.956;5.320;2023-10-08T08:58:35;26.10;99.90
29453;DHT22;16424;50.956;5.320;2023-10-08T09:01:03;26.50;99.90
29453;DHT22;16424;50.956;5.320;2023-10-08T09:03:29;27.00;99.90
29453;DHT22;16424;50.956;5.320;2023-10-08T09:05:59;26.80;99.90
29453;DHT22;16424;50.956;5.320;2023-10-08T09:08:43;27.10;99.90
29453;DHT22;16424;50.956;5.320;2023-10-08T09:11:15;27.20;99.90
29453;DHT22;16424;50.956;5.320;2023-10-08T09:13:41;27.40;99.90
29453;DHT22;16424;50.956;5.320;2023-10-08T09:16:08;27.50;99.90
29453;DHT22;16424;50.956;5.320;2023-10-08T09:18:36;27.30;99.90
29453;DHT22;16424;50.956;5.320;2023-10-08T09:21:16;27.30;99.90
29453;DHT22;16424;50.956;5.320;2023-10-08T09:23:49;27.30;99.90
29453;DHT22;16424;50.956;5.320;2023-10-08T09:26:23;27.30;99.90
29453;DHT22;16424;50.956;5.320;2023-10-08T09:28:49;27.00;99.90
29453;DHT22;16424;50.956;5.320;2023-10-08T09:31:15;26.70;99.90
29453;DHT22;16424;50.956;5.320;2023-10-08T09:33:43;26.60;99.90
29453;DHT22;16424;50.956;5.320;2023-10-08T09:36:18;26.80;99.90
29453;DHT22;16424;50.956;5.320;2023-10-08T09:38:46;27.00;99.90
29453;DHT22;16424;50.956;5.320;2023-10-08T09:41:14;26.50;99.90
29453;DHT22;16424;50.956;5.320;2023-10-08T09:43:41;26.50;99.90
29453;DHT22;16424;50.956;5.320;2023-10-08T09:46:18;26.70;99.90
29453;DHT22;16424;50.956;5.320;2023-10-08T09:48:51;26.90;99.90
29453;DHT22;16424;50.956;5.320;2023-10-08T09:51:20;26.70;99.90
29453;DHT22;16424;50.956;5.320;2023-10-08T09:53:52;26.50;99.90
29453;DHT22;16424;50.956;5.320;2023-10-08T09:56:22;25.80;99.90
29453;DHT22;16424;50.956;5.320;2023-10-08T09:58:49;25.30;99.90
29453;DHT22;16424;50.956;5.320;2023-10-08T10:01:17;25.10;99.90
29453;DHT22;16424;50.956;5.320;2023-10-08T10:03:45;24.60;99.90
29453;DHT22;16424;50.956;5.320;2023-10-08T10:06:15;24.60;99.90
29453;DHT22;16424;50.956;5.320;2023-10-08T10:08:43;24.80;99.90
29453;DHT22;16424;50.956;5.320;2023-10-08T10:11:09;24.90;99.90
29453;DHT22;16424;50.956;5.320;2023-10-08T10:13:44;24.50;99.90
29453;DHT22;16424;50.956;5.320;2023-10-08T10:16:10;24.20;99.90
29453;DHT22;16424;50.956;5.320;2023-10-08T10:18:38;24.50;99.90
29453;DHT22;16424;50.956;5.320;2023-10-08T10:23:43;24.30;99.90
29453;DHT22;16424;50.956;5.320;2023-10-08T10:26:22;24.20;99.90
29453;DHT22;16424;50.956;5.320;2023-10-08T10:31:37;24.20;99.90
29453;DHT22;16424;50.956;5.320;2023-10-08T10:34:06;24.20;99.90
29453;DHT22;16424;50.956;5.320;2023-10-08T10:36:34;24.40;99.90
29453;DHT22;16424;50.956;5.320;2023-10-08T10:39:00;24.30;99.90
29453;DHT22;16424;50.956;5.320;2023-10-08T10:41:29;24.20;99.90
29453;DHT22;16424;50.956;5.320;2023-10-08T10:43:55;23.60;99.90
29453;DHT22;16424;50.956;5.320;2023-10-08T10:46:23;23.70;99.90
29453;DHT22;16424;50.956;5.320;2023-10-08T10:48:57;23.30;99.90
29453;DHT22;16424;50.956;5.320;2023-10-08T10:51:43;22.90;99.90
29453;DHT22;16424;50.956;5.320;2023-10-08T10:54:09;23.10;99.90
29453;DHT22;16424;50.956;5.320;2023-10-08T10:56:45;23.30;99.90
29453;DHT22;16424;50.956;5.320;2023-10-08T10:59:13;23.40;99.90
29453;DHT22;16424;50.956;5.320;2023-10-08T11:01:50;23.40;99.90
29453;DHT22;16424;50.956;5.320;2023-10-08T11:04:31;23.40;99.90
29453;DHT22;16424;50.956;5.320;2023-10-08T11:06:57;23.30;99.90
29453;DHT22;16424;50.956;5.320;2023-10-08T11:09:26;22.80;99.90
29453;DHT22;16424;50.956;5.320;2023-10-08T11:12:03;23.00;99.90
29453;DHT22;16424;50.956;5.320;2023-10-08T11:14:40;23.40;99.90
29453;DHT22;16424;50.956;5.320;2023-10-08T11:17:16;23.80;99.90
29453;DHT22;16424;50.956;5.320;2023-10-08T11:19:45;23.70;99.90
29453;DHT22;16424;50.956;5.320;2023-10-08T11:22:15;23.20;99.90
29453;DHT22;16424;50.956;5.320;2023-10-08T11:24:47;23.40;99.90
29453;DHT22;16424;50.956;5.320;2023-10-08T11:27:32;23.80;99.90
29453;DHT22;16424;50.956;5.320;2023-10-08T11:30:04;23.70;99.90
29453;DHT22;16424;50.956;5.320;2023-10-08T11:32:36;24.10;99.90
29453;DHT22;16424;50.956;5.320;2023-10-08T11:35:04;24.20;99.90
29453;DHT22;16424;50.956;5.320;2023-10-08T11:37:45;24.00;99.90
29453;DHT22;16424;50.956;5.320;2023-10-08T11:40:22;23.80;99.90
29453;DHT22;16424;50.956;5.320;2023-10-08T11:42:57;24.10;99.90
29453;DHT22;16424;50.956;5.320;2023-10-08T11:45:25;24.20;99.90
29453;DHT22;16424;50.956;5.320;2023-10-08T11:48:04;24.50;99.90
29453;DHT22;16424;50.956;5.320;2023-10-08T11:50:37;24.50;99.90
29453;DHT22;16424;50.956;5.320;2023-10-08T11:53:04;25.00;99.90
29453;DHT22;16424;50.956;5.320;2023-10-08T11:55:33;25.10;99.90
29453;DHT22;16424;50.956;5.320;2023-10-08T11:58:07;25.00;99.90
29453;DHT22;16424;50.956;5.320;2023-10-08T12:00:39;25.30;99.90
29453;DHT22;16424;50.956;5.320;2023-10-08T12:03:15;25.40;99.90
29453;DHT22;16424;50.956;5.320;2023-10-08T12:05:48;25.30;99.90
29453;DHT22;16424;50.956;5.320;2023-10-08T12:08:15;25.20;99.90
29453;DHT22;16424;50.956;5.320;2023-10-08T12:10:44;25.10;99.90
29453;DHT22;16424;50.956;5.320;2023-10-08T12:13:14;25.20;99.90
29453;DHT22;16424;50.956;5.320;2023-10-08T12:15:42;25.40;99.90
29453;DHT22;16424;50.956;5.320;2023-10-08T12:18:10;25.40;99.90
29453;DHT22;16424;50.956;5.320;2023-10-08T12:21:06;25.50;99.90
29453;DHT22;16424;50.956;5.320;2023-10-08T12:23:37;25.70;99.90
29453;DHT22;16424;50.956;5.320;2023-10-08T12:26:03;25.60;99.90
29453;DHT22;16424;50.956;5.320;2023-10-08T12:28:29;25.30;99.90
29453;DHT22;16424;50.956;5.320;2023-10-08T12:30:54;25.30;99.90
29453;DHT22;16424;50.956;5.320;2023-10-08T12:33:23;25.30;99.90
29453;DHT22;16424;50.956;5.320;2023-10-08T12:35:54;25.50;99.90
29453;DHT22;16424;50.956;5.320;2023-10-08T12:38:21;25.40;99.90
29453;DHT22;16424;50.956;5.320;2023-10-08T12:40:51;25.20;99.90
29453;DHT22;16424;50.956;5.320;2023-10-08T12:43:20;25.30;99.90
29453;DHT22;16424;50.956;5.320;2023-10-08T12:45:49;25.40;99.90
29453;DHT22;16424;50.956;5.320;2023-10-08T12:48:25;25.40;99.90
29453;DHT22;16424;50.956;5.320;2023-10-08T12:50:54;25.60;99.90
29453;DHT22;16424;50.956;5.320;2023-10-08T12:53:25;25.90;99.90
29453;DHT22;16424;50.956;5.320;2023-10-08T12:56:06;26.00;99.90
29453;DHT22;16424;50.956;5.320;2023-10-08T12:58:36;26.00;99.90
29453;DHT22;16424;50.956;5.320;2023-10-08T13:01:10;25.40;99.90
29453;DHT22;16424;50.956;5.320;2023-10-08T13:03:37;25.70;99.90
29453;DHT22;16424;50.956;5.320;2023-10-08T13:06:13;26.00;99.90
29453;DHT22;16424;50.956;5.320;2023-10-08T13:08:49;26.20;99.90
29453;DHT22;16424;50.956;5.320;2023-10-08T13:11:21;26.50;99.90
29453;DHT22;16424;50.956;5.320;2023-10-08T13:13:52;26.30;99.90
29453;DHT22;16424;50.956;5.320;2023-10-08T13:16:19;25.30;99.90
29453;DHT22;16424;50.956;5.320;2023-10-08T13:18:47;25.20;99.90
29453;DHT22;16424;50.956;5.320;2023-10-08T13:21:13;25.50;99.90
29453;DHT22;16424;50.956;5.320;2023-10-08T13:23:39;25.60;99.90
29453;DHT22;16424;50.956;5.320;2023-10-08T13:26:05;25.60;99.90
29453;DHT22;16424;50.956;5.320;2023-10-08T13:28:35;25.50;99.90
29453;DHT22;16424;50.956;5.320;2023-10-08T13:31:04;25.60;99.90
29453;DHT22;16424;50.956;5.320;2023-10-08T13:33:41;25.50;99.90
29453;DHT22;16424;50.956;5.320;2023-10-08T13:36:15;25.40;99.90
29453;DHT22;16424;50.956;5.320;2023-10-08T13:38:41;25.70;99.90
29453;DHT22;16424;50.956;5.320;2023-10-08T13:41:10;25.90;99.90
29453;DHT22;16424;50.956;5.320;2023-10-08T13:43:51;26.20;99.90
29453;DHT22;16424;50.956;5.320;2023-10-08T13:46:20;26.20;99.90
29453;DHT22;16424;50.956;5.320;2023-10-08T13:48:50;26.10;99.90
29453;DHT22;16424;50.956;5.320;2023-10-08T13:51:20;26.20;99.90
29453;DHT22;16424;50.956;5.320;2023-10-08T13:53:56;26.20;99.90
29453;DHT22;16424;50.956;5.320;2023-10-08T13:56:28;25.80;99.90
29453;DHT22;16424;50.956;5.320;2023-10-08T13:58:57;25.40;99.90
29453;DHT22;16424;50.956;5.320;2023-10-08T14:01:33;25.70;99.90
29453;DHT22;16424;50.956;5.320;2023-10-08T14:04:00;26.10;99.90
29453;DHT22;16424;50.956;5.320;2023-10-08T14:06:33;26.00;99.90
29453;DHT22;16424;50.956;5.320;2023-10-08T14:09:00;26.30;99.90
29453;DHT22;16424;50.956;5.320;2023-10-08T14:11:26;26.30;99.90
29453;DHT22;16424;50.956;5.320;2023-10-08T14:13:56;25.40;99.90
29453;DHT22;16424;50.956;5.320;2023-10-08T14:16:22;24.90;99.90
29453;DHT22;16424;50.956;5.320;2023-10-08T14:18:55;24.80;99.90
29453;DHT22;16424;50.956;5.320;2023-10-08T14:21:22;25.30;99.90
29453;DHT22;16424;50.956;5.320;2023-10-08T14:23:56;25.80;99.90
29453;DHT22;16424;50.956;5.320;2023-10-08T14:26:22;26.10;99.90
29453;DHT22;16424;50.956;5.320;2023-10-08T14:28:49;26.20;99.90
29453;DHT22;16424;50.956;5.320;2023-10-08T14:31:20;26.40;99.90
29453;DHT22;16424;50.956;5.320;2023-10-08T14:33:50;26.40;99.90
29453;DHT22;16424;50.956;5.320;2023-10-08T14:36:33;26.00;99.90
29453;DHT22;16424;50.956;5.320;2023-10-08T14:39:18;25.80;99.90
29453;DHT22;16424;50.956;5.320;2023-10-08T14:42:02;25.70;99.90
29453;DHT22;16424;50.956;5.320;2023-10-08T14:44:47;25.90;99.90
29453;DHT22;16424;50.956;5.320;2023-10-08T14:47:14;26.00;99.90
29453;DHT22;16424;50.956;5.320;2023-10-08T14:49:41;25.90;99.90
29453;DHT22;16424;50.956;5.320;2023-10-08T14:52:08;25.70;99.90
29453;DHT22;16424;50.956;5.320;2023-10-08T14:54:33;25.80;99.90
29453;DHT22;16424;50.956;5.320;2023-10-08T14:57:00;25.60;99.90
29453;DHT22;16424;50.956;5.320;2023-10-08T14:59:28;25.80;99.90
29453;DHT22;16424;50.956;5.320;2023-10-08T15:01:56;25.90;99.90
29453;DHT22;16424;50.956;5.320;2023-10-08T15:04:22;25.90;99.90
29453;DHT22;16424;50.956;5.320;2023-10-08T15:06:48;26.00;99.90
29453;DHT22;16424;50.956;5.320;2023-10-08T15:09:15;25.80;99.90
29453;DHT22;16424;50.956;5.320;2023-10-08T15:11:47;25.60;99.90
29453;DHT22;16424;50.956;5.320;2023-10-08T15:14:13;25.60;99.90
29453;DHT22;16424;50.956;5.320;2023-10-08T15:16:41;25.70;99.90
29453;DHT22;16424;50.956;5.320;2023-10-08T15:19:09;25.70;99.90
29453;DHT22;16424;50.956;5.320;2023-10-08T15:21:40;25.40;99.90
29453;DHT22;16424;50.956;5.320;2023-10-08T15:24:06;25.10;99.90
29453;DHT22;16424;50.956;5.320;2023-10-08T15:26:36;24.80;99.90
29453;DHT22;16424;50.956;5.320;2023-10-08T15:29:02;24.90;99.90
29453;DHT22;16424;50.956;5.320;2023-10-08T15:31:29;25.00;99.90
29453;DHT22;16424;50.956;5.320;2023-10-08T15:33:55;25.00;99.90
29453;DHT22;16424;50.956;5.320;2023-10-08T15:36:21;25.10;99.90
29453;DHT22;16424;50.956;5.320;2023-10-08T15:38:47;25.00;99.90
29453;DHT22;16424;50.956;5.320;2023-10-08T15:41:12;24.90;99.90
29453;DHT22;16424;50.956;5.320;2023-10-08T15:43:42;24.80;99.90
29453;DHT22;16424;50.956;5.320;2023-10-08T15:46:10;24.80;99.90
29453;DHT22;16424;50.956;5.320;2023-10-08T15:48:36;24.80;99.90
29453;DHT22;16424;50.956;5.320;2023-10-08T15:51:03;24.70;99.90
29453;DHT22;16424;50.956;5.320;2023-10-08T15:53:28;24.70;99.90
29453;DHT22;16424;50.956;5.320;2023-10-08T15:55:56;24.60;99.90
29453;DHT22;16424;50.956;5.320;2023-10-08T15:58:22;24.60;99.90
29453;DHT22;16424;50.956;5.320;2023-10-08T16:00:47;24.50;99.90
29453;DHT22;16424;50.956;5.320;2023-10-08T16:03:13;24.40;99.90
29453;DHT22;16424;50.956;5.320;2023-10-08T16:05:43;24.40;99.90
29453;DHT22;16424;50.956;5.320;2023-10-08T16:08:08;24.30;99.90
29453;DHT22;16424;50.956;5.320;2023-10-08T16:10:34;24.30;99.90
29453;DHT22;16424;50.956;5.320;2023-10-08T16:13:00;24.20;99.90
29453;DHT22;16424;50.956;5.320;2023-10-08T16:15:26;24.20;99.90
29453;DHT22;16424;50.956;5.320;2023-10-08T16:17:52;24.10;99.90